Time,TemperatureF,DewpointF,PressureIn,WindDirection,WindDirectionDegrees,WindSpeedMPH,WindSpeedGustMPH,Humidity,HourlyPrecipIn,Conditions,Clouds,dailyrainin,SoftwareType,DateUTC
2013-03-08 00:13:00,33.5,20.0,30.18,NW,316,3.0,5.0,59,0.00,,,0.00,weatherlink.com 1.10,2013-03-08 05:13:00,
2013-03-08 00:28:00,33.5,20.0,30.18,NW,325,3.0,7.0,57,0.00,,,0.00,weatherlink.com 1.10,2013-03-08 05:28:00,
2013-03-08 00:43:00,33.0,20.0,30.19,NNW,331,2.0,4.0,58,0.00,,,0.00,weatherlink.com 1.10,2013-03-08 05:43:00,
2013-03-08 00:58:00,32.3,21.0,30.19,NNW,331,2.0,3.0,64,0.00,,,0.00,weatherlink.com 1.10,2013-03-08 05:58:00,
2013-03-08 01:13:00,32.2,22.0,30.19,NW,319,2.0,5.0,66,0.00,,,0.00,weatherlink.com 1.10,2013-03-08 06:13:00,
2013-03-08 01:28:00,31.8,22.0,30.20,NNW,336,2.0,4.0,66,0.00,,,0.00,weatherlink.com 1.10,2013-03-08 06:28:00,
2013-03-08 01:43:00,31.1,21.0,30.19,NW,304,3.0,3.0,67,0.00,,,0.00,weatherlink.com 1.10,2013-03-08 06:43:00,
2013-03-08 01:58:00,31.0,21.0,30.19,NNW,327,3.0,3.0,66,0.00,,,0.00,weatherlink.com 1.10,2013-03-08 06:58:00,
2013-03-08 02:13:00,30.7,21.0,30.19,NW,315,2.0,4.0,66,0.00,,,0.00,weatherlink.com 1.10,2013-03-08 07:13:00,
2013-03-08 02:28:00,30.7,20.0,30.18,NW,308,2.0,4.0,65,0.00,,,0.00,weatherlink.com 1.10,2013-03-08 07:28:00,
2013-03-08 02:43:00,30.3,20.0,30.18,NW,313,2.0,4.0,67,0.00,,,0.00,weatherlink.com 1.10,2013-03-08 07:43:00,
2013-03-08 02:59:00,29.9,20.0,30.17,WNW,298,2.0,4.0,67,0.00,,,0.00,weatherlink.com 1.10,2013-03-08 07:59:00,
2013-03-08 03:14:00,29.8,20.0,30.17,NNW,329,2.0,4.0,68,0.00,,,0.00,weatherlink.com 1.10,2013-03-08 08:14:00,
2013-03-08 03:29:00,29.4,20.0,30.16,NW,309,2.0,4.0,69,0.00,,,0.00,weatherlink.com 1.10,2013-03-08 08:29:00,
2013-03-08 03:44:00,29.4,20.0,30.16,NNW,340,3.0,6.0,69,0.00,,,0.00,weatherlink.com 1.10,2013-03-08 08:44:00,
2013-03-08 03:59:00,29.3,21.0,30.17,NW,322,2.0,4.0,70,0.00,,,0.00,weatherlink.com 1.10,2013-03-08 08:59:00,
2013-03-08 04:14:00,29.5,20.0,30.17,NNW,328,2.0,4.0,69,0.00,,,0.00,weatherlink.com 1.10,2013-03-08 09:14:00,
2013-03-08 04:28:00,29.8,21.0,30.17,WNW,298,3.0,5.0,69,0.00,,,0.00,weatherlink.com 1.10,2013-03-08 09:28:00,
2013-03-08 04:43:00,30.0,21.0,30.17,NNW,331,3.0,4.0,69,0.00,,,0.00,weatherlink.com 1.10,2013-03-08 09:43:00,
2013-03-08 04:59:00,30.0,21.0,30.16,NNW,344,2.0,5.0,69,0.00,,,0.00,weatherlink.com 1.10,2013-03-08 09:59:00,
2013-03-08 05:14:00,30.1,21.0,30.16,NNW,347,1.0,6.0,68,0.00,,,0.00,weatherlink.com 1.10,2013-03-08 10:14:00,
2013-03-08 05:29:00,30.1,21.0,30.17,NNW,328,2.0,4.0,68,0.00,,,0.00,weatherlink.com 1.10,2013-03-08 10:29:00,
2013-03-08 05:44:00,30.2,21.0,30.17,NNE,19,2.0,6.0,68,0.00,,,0.00,weatherlink.com 1.10,2013-03-08 10:44:00,
2013-03-08 05:59:00,29.9,22.0,30.17,NNE,26,6.0,9.0,71,0.00,,,0.00,weatherlink.com 1.10,2013-03-08 10:59:00,
2013-03-08 06:14:00,29.8,22.0,30.17,NW,324,1.0,3.0,73,0.00,,,0.00,weatherlink.com 1.10,2013-03-08 11:14:00,
2013-03-08 06:29:00,29.1,23.0,30.18,WNW,303,1.0,7.0,78,0.00,,,0.00,weatherlink.com 1.10,2013-03-08 11:29:00,
2013-03-08 06:44:00,28.2,25.0,30.18,NW,319,2.0,6.0,86,0.00,,,0.00,weatherlink.com 1.10,2013-03-08 11:44:00,
2013-03-08 06:59:00,28.4,25.0,30.18,NW,318,3.0,5.0,85,0.00,,,0.00,weatherlink.com 1.10,2013-03-08 11:59:00,
2013-03-08 07:14:00,28.4,25.0,30.18,NW,319,2.0,6.0,87,0.00,,,0.00,weatherlink.com 1.10,2013-03-08 12:14:00,
2013-03-08 07:29:00,28.0,26.0,30.19,NNW,331,2.0,5.0,91,0.00,,,0.00,weatherlink.com 1.10,2013-03-08 12:29:00,
2013-03-08 07:44:00,27.6,26.0,30.19,NW,307,2.0,4.0,93,0.00,,,0.00,weatherlink.com 1.10,2013-03-08 12:44:00,
2013-03-08 07:59:00,27.6,26.0,30.19,WNW,298,1.0,6.0,94,0.00,,,0.00,weatherlink.com 1.10,2013-03-08 12:59:00,
2013-03-08 08:14:00,27.8,26.0,30.19,WNW,301,3.0,5.0,94,0.00,,,0.00,weatherlink.com 1.10,2013-03-08 13:14:00,
2013-03-08 08:29:00,28.0,26.0,30.19,NW,315,2.0,5.0,93,0.00,,,0.00,weatherlink.com 1.10,2013-03-08 13:29:00,
2013-03-08 08:44:00,28.3,26.0,30.19,NNW,327,2.0,5.0,92,0.00,,,0.00,weatherlink.com 1.10,2013-03-08 13:44:00,
2013-03-08 08:59:00,28.8,27.0,30.19,NW,306,3.0,5.0,92,0.00,,,0.00,weatherlink.com 1.10,2013-03-08 13:59:00,
2013-03-08 09:14:00,29.4,27.0,30.19,NW,322,2.0,6.0,89,0.00,,,0.00,weatherlink.com 1.10,2013-03-08 14:14:00,
2013-03-08 09:29:00,29.9,27.0,30.19,NW,315,1.0,6.0,89,0.00,,,0.00,weatherlink.com 1.10,2013-03-08 14:29:00,
2013-03-08 09:44:00,30.4,27.0,30.19,WNW,296,2.0,5.0,86,0.00,,,0.00,weatherlink.com 1.10,2013-03-08 14:44:00,
2013-03-08 09:59:00,31.1,27.0,30.19,NW,308,3.0,7.0,83,0.00,,,0.00,weatherlink.com 1.10,2013-03-08 14:59:00,
2013-03-08 10:14:00,31.8,26.0,30.19,NW,309,3.0,6.0,79,0.00,,,0.00,weatherlink.com 1.10,2013-03-08 15:14:00,
2013-03-08 10:29:00,32.8,26.0,30.19,WNW,296,3.0,6.0,75,0.00,,,0.00,weatherlink.com 1.10,2013-03-08 15:29:00,
2013-03-08 10:44:00,33.3,26.0,30.20,NW,325,4.0,7.0,75,0.00,,,0.00,weatherlink.com 1.10,2013-03-08 15:44:00,
2013-03-08 10:59:00,34.3,26.0,30.20,NW,321,3.0,6.0,73,0.00,,,0.00,weatherlink.com 1.10,2013-03-08 15:59:00,
2013-03-08 11:13:00,35.1,26.0,30.20,NNW,343,2.0,7.0,70,0.00,,,0.00,weatherlink.com 1.10,2013-03-08 16:13:00,
2013-03-08 11:29:00,35.7,26.0,30.20,West,278,5.0,10.0,68,0.00,,,0.00,weatherlink.com 1.10,2013-03-08 16:29:00,
2013-03-08 11:44:00,35.8,26.0,30.21,NW,325,3.0,8.0,68,0.00,,,0.00,weatherlink.com 1.10,2013-03-08 16:44:00,
2013-03-08 11:59:00,36.6,27.0,30.21,NW,308,4.0,6.0,68,0.00,,,0.00,weatherlink.com 1.10,2013-03-08 16:59:00,
2013-03-08 12:14:00,36.9,26.0,30.21,NW,311,3.0,8.0,65,0.00,,,0.00,weatherlink.com 1.10,2013-03-08 17:14:00,
2013-03-08 12:29:00,37.6,27.0,30.20,NNW,331,5.0,7.0,66,0.00,,,0.00,weatherlink.com 1.10,2013-03-08 17:29:00,
2013-03-08 12:44:00,37.6,27.0,30.19,North,10,6.0,9.0,67,0.00,,,0.00,weatherlink.com 1.10,2013-03-08 17:44:00,
2013-03-08 12:59:00,37.6,27.0,30.19,NNE,31,4.0,8.0,66,0.00,,,0.00,weatherlink.com 1.10,2013-03-08 17:59:00,
2013-03-08 13:14:00,38.0,27.0,30.19,NNW,327,5.0,8.0,64,0.00,,,0.00,weatherlink.com 1.10,2013-03-08 18:14:00,
2013-03-08 13:29:00,38.1,27.0,30.19,NW,312,3.0,6.0,64,0.00,,,0.00,weatherlink.com 1.10,2013-03-08 18:29:00,
2013-03-08 13:44:00,38.7,28.0,30.19,NW,324,1.0,7.0,65,0.00,,,0.00,weatherlink.com 1.10,2013-03-08 18:44:00,
2013-03-08 13:59:00,39.1,28.0,30.19,NNW,339,6.0,8.0,64,0.00,,,0.00,weatherlink.com 1.10,2013-03-08 18:59:00,
2013-03-08 14:14:00,39.3,28.0,30.18,NW,316,3.0,7.0,63,0.00,,,0.00,weatherlink.com 1.10,2013-03-08 19:14:00,
2013-03-08 14:29:00,39.6,27.0,30.19,NNW,335,4.0,7.0,62,0.00,,,0.00,weatherlink.com 1.10,2013-03-08 19:29:00,
2013-03-08 14:44:00,39.6,27.0,30.19,West,263,2.0,8.0,62,0.00,,,0.00,weatherlink.com 1.10,2013-03-08 19:44:00,
2013-03-08 14:59:00,40.0,29.0,30.20,NW,318,4.0,8.0,64,0.00,,,0.00,weatherlink.com 1.10,2013-03-08 19:59:00,
2013-03-08 15:14:00,40.2,28.0,30.20,NNW,331,4.0,7.0,62,0.00,,,0.00,weatherlink.com 1.10,2013-03-08 20:14:00,
2013-03-08 15:29:00,40.2,28.0,30.20,NNE,29,3.0,8.0,62,0.00,,,0.00,weatherlink.com 1.10,2013-03-08 20:29:00,
2013-03-08 15:44:00,40.4,28.0,30.21,NNW,337,3.0,9.0,62,0.00,,,0.00,weatherlink.com 1.10,2013-03-08 20:44:00,
2013-03-08 15:59:00,40.5,28.0,30.22,NW,309,2.0,7.0,62,0.00,,,0.00,weatherlink.com 1.10,2013-03-08 20:59:00,
2013-03-08 16:14:00,40.4,28.0,30.22,NW,323,5.0,7.0,62,0.00,,,0.00,weatherlink.com 1.10,2013-03-08 21:14:00,
2013-03-08 16:29:00,40.0,28.0,30.22,NW,326,3.0,7.0,62,0.00,,,0.00,weatherlink.com 1.10,2013-03-08 21:29:00,
2013-03-08 16:44:00,40.0,28.0,30.22,NW,321,4.0,8.0,62,0.00,,,0.00,weatherlink.com 1.10,2013-03-08 21:44:00,
2013-03-08 16:59:00,39.9,28.0,30.23,NW,317,5.0,7.0,62,0.00,,,0.00,weatherlink.com 1.10,2013-03-08 21:59:00,
2013-03-08 17:14:00,40.0,28.0,30.25,WNW,286,4.0,7.0,62,0.00,,,0.00,weatherlink.com 1.10,2013-03-08 22:14:00,
2013-03-08 17:29:00,40.0,27.0,30.26,NW,324,3.0,8.0,61,0.00,,,0.00,weatherlink.com 1.10,2013-03-08 22:29:00,
2013-03-08 17:44:00,39.9,28.0,30.26,WNW,301,3.0,6.0,62,0.00,,,0.00,weatherlink.com 1.10,2013-03-08 22:44:00,
2013-03-08 17:59:00,39.7,27.0,30.27,NW,324,5.0,7.0,61,0.00,,,0.00,weatherlink.com 1.10,2013-03-08 22:59:00,
2013-03-08 18:14:00,39.3,27.0,30.27,WNW,298,4.0,7.0,62,0.00,,,0.00,weatherlink.com 1.10,2013-03-08 23:14:00,
2013-03-08 18:29:00,38.9,27.0,30.27,NW,322,3.0,6.0,63,0.00,,,0.00,weatherlink.com 1.10,2013-03-08 23:29:00,
2013-03-08 18:44:00,38.7,27.0,30.28,NW,325,2.0,7.0,62,0.00,,,0.00,weatherlink.com 1.10,2013-03-08 23:44:00,
2013-03-08 18:59:00,38.7,27.0,30.28,NW,322,6.0,6.0,62,0.00,,,0.00,weatherlink.com 1.10,2013-03-08 23:59:00,
2013-03-08 19:14:00,38.1,26.0,30.29,NW,322,4.0,5.0,63,0.00,,,0.00,weatherlink.com 1.10,2013-03-09 00:14:00,
2013-03-08 19:30:00,38.1,26.0,30.29,NNW,327,2.0,6.0,63,0.00,,,0.00,weatherlink.com 1.10,2013-03-09 00:30:00,
2013-03-08 19:44:00,37.7,26.0,30.30,NW,317,2.0,5.0,63,0.00,,,0.00,weatherlink.com 1.10,2013-03-09 00:44:00,
2013-03-08 19:59:00,37.9,26.0,30.30,NW,314,2.0,5.0,62,0.00,,,0.00,weatherlink.com 1.10,2013-03-09 00:59:00,
2013-03-08 20:14:00,37.4,26.0,30.31,NNW,333,3.0,4.0,64,0.00,,,0.00,weatherlink.com 1.10,2013-03-09 01:14:00,
2013-03-08 20:29:00,37.4,25.0,30.30,NW,315,2.0,5.0,62,0.00,,,0.00,weatherlink.com 1.10,2013-03-09 01:29:00,
2013-03-08 20:44:00,36.9,25.0,30.32,NW,309,2.0,4.0,63,0.00,,,0.00,weatherlink.com 1.10,2013-03-09 01:44:00,
2013-03-08 21:00:00,36.8,25.0,30.33,NNW,333,2.0,5.0,62,0.00,,,0.00,weatherlink.com 1.10,2013-03-09 02:00:00,
2013-03-08 21:15:00,36.4,25.0,30.33,NW,325,2.0,5.0,63,0.00,,,0.00,weatherlink.com 1.10,2013-03-09 02:15:00,
2013-03-08 21:30:00,36.1,24.0,30.33,NW,318,3.0,6.0,63,0.00,,,0.00,weatherlink.com 1.10,2013-03-09 02:30:00,
2013-03-08 21:45:00,35.8,24.0,30.34,NNW,333,3.0,6.0,63,0.00,,,0.00,weatherlink.com 1.10,2013-03-09 02:45:00,
2013-03-08 22:00:00,35.5,24.0,30.34,NNW,328,4.0,5.0,64,0.00,,,0.00,weatherlink.com 1.10,2013-03-09 03:00:00,
2013-03-08 22:15:00,35.0,24.0,30.34,NNW,328,2.0,5.0,64,0.00,,,0.00,weatherlink.com 1.10,2013-03-09 03:15:00,
2013-03-08 22:30:00,34.8,24.0,30.34,NNW,337,3.0,5.0,65,0.00,,,0.00,weatherlink.com 1.10,2013-03-09 03:30:00,
2013-03-08 22:45:00,34.5,24.0,30.34,NW,313,1.0,4.0,65,0.00,,,0.00,weatherlink.com 1.10,2013-03-09 03:45:00,
2013-03-08 23:00:00,34.0,24.0,30.34,NW,307,1.0,3.0,66,0.00,,,0.00,weatherlink.com 1.10,2013-03-09 04:00:00,
2013-03-08 23:15:00,33.8,23.0,30.35,NW,319,2.0,3.0,66,0.00,,,0.00,weatherlink.com 1.10,2013-03-09 04:15:00,
2013-03-08 23:30:00,33.5,24.0,30.35,NW,319,1.0,3.0,67,0.00,,,0.00,weatherlink.com 1.10,2013-03-09 04:30:00,
2013-03-08 23:45:00,33.2,23.0,30.35,NNW,335,1.0,4.0,67,0.00,,,0.00,weatherlink.com 1.10,2013-03-09 04:45:00,